Kezdőlap
METAR-TAF:

METAR-TAF

Repülőterek :

Linden, New Jersey, Amerikai Egyesült Államok

földrajzi szélesség: 40-37-03N, földrajzi hosszúság: 074-14-40W, magasság: 7 m

Jelenlegi meteorológiai megfigyelések

A jelentés 15 perccel ezelõtt készült, 14:15 UTC
Észak-északnyugati szél 7 kt
Hőmérséklet -4°C
Páratartalom 54%
Légköri nyomás 1032 hPa
Látótávolság: 16.1 km
Derült ég

METAR: KLDJ 211415Z AUTO 34007KT 10SM CLR M04/M12 A3048 RMK AO2 T10451118

Idő: 09:30 (14:30 UTC)


TAF: hiányzik

Meteorológiai megfigyelések és előrejelzések több, mint 4000 repülőtéren (METAR és TAF jelentéseket).

A térképen piros és sárga pontok jelzik az elérhető meteorológiai állomásokat.

Mozgassa az egeret a pont fölött, hogy megjelenjen az állomás neve.

Azután kattintson az időjárási megfigyelések és előrejelzések megtekintéséhez.

A térkép megváltoztatása: kattintson a fekete keresztel jelölt zöld gombra ráközelítéshez, a vonallal jelölt zöld gombra távolításhoz, vagy a zöld nyilakra a szomszédos térképek eléréséhez.


METAR-TAF: